Time,TemperatureF,DewpointF,PressureIn,WindDirection,WindDirectionDegrees,WindSpeedMPH,WindSpeedGustMPH,Humidity,HourlyPrecipIn,Conditions,Clouds,dailyrainin,SolarRadiationWatts/m^2,SoftwareType,DateUTC
2013-10-27 00:00:00,40.1,29.6,30.20,ENE,68,0.0,-999.0,66,0.00,,,0.00,0,Wunderground v.1.15,2013-10-27 06:00:00,
2013-10-27 00:10:00,39.7,29.3,30.20,ENE,68,0.0,-999.0,66,0.00,,,0.00,0,Wunderground v.1.15,2013-10-27 06:10:00,
2013-10-27 00:15:00,39.5,29.1,30.20,ENE,68,0.0,-999.0,66,0.00,,,0.00,0,Wunderground v.1.15,2013-10-27 06:15:00,
2013-10-27 00:20:00,39.4,29.0,30.20,ENE,68,0.0,-999.0,66,0.00,,,0.00,0,Wunderground v.1.15,2013-10-27 06:20:00,
2013-10-27 00:25:00,39.2,28.8,30.20,ENE,68,0.0,-999.0,66,0.00,,,0.00,0,Wunderground v.1.15,2013-10-27 06:25:00,
2013-10-27 00:30:00,39.2,28.8,30.20,ENE,68,0.0,-999.0,66,0.00,,,0.00,0,Wunderground v.1.15,2013-10-27 06:30:00,
2013-10-27 00:35:00,39.1,29.1,30.20,ENE,68,0.0,-999.0,67,0.00,,,0.00,0,Wunderground v.1.15,2013-10-27 06:35:00,
2013-10-27 00:40:00,39.1,29.1,30.20,ENE,68,0.0,-999.0,67,0.00,,,0.00,0,Wunderground v.1.15,2013-10-27 06:40:00,
2013-10-27 00:45:00,39.1,29.4,30.20,ENE,68,0.0,-999.0,68,0.00,,,0.00,0,Wunderground v.1.15,2013-10-27 06:45:00,
2013-10-27 00:50:00,38.9,29.2,30.20,ENE,68,0.0,-999.0,68,0.00,,,0.00,0,Wunderground v.1.15,2013-10-27 06:50:00,
2013-10-27 01:00:00,38.7,29.4,30.20,ENE,68,0.0,-999.0,69,0.00,,,0.00,0,Wunderground v.1.15,2013-10-27 07:00:00,
2013-10-27 01:05:00,38.7,29.8,30.20,ENE,68,0.0,-999.0,70,0.00,,,0.00,0,Wunderground v.1.15,2013-10-27 07:05:00,
2013-10-27 01:10:00,38.4,29.1,30.20,ENE,68,0.0,-999.0,69,0.00,,,0.00,0,Wunderground v.1.15,2013-10-27 07:10:00,
2013-10-27 01:15:00,38.3,29.4,30.20,ENE,68,0.0,-999.0,70,0.00,,,0.00,0,Wunderground v.1.15,2013-10-27 07:15:00,
2013-10-27 01:20:00,38.3,29.4,30.20,ENE,68,0.0,-999.0,70,0.00,,,0.00,0,Wunderground v.1.15,2013-10-27 07:20:00,
2013-10-27 01:30:00,38.0,29.4,30.20,ENE,68,0.0,-999.0,71,0.00,,,0.00,0,Wunderground v.1.15,2013-10-27 07:30:00,
2013-10-27 01:35:00,37.9,29.3,30.20,ENE,68,0.0,-999.0,71,0.00,,,0.00,0,Wunderground v.1.15,2013-10-27 07:35:00,
2013-10-27 01:40:00,37.6,29.0,30.20,ENE,68,0.0,-999.0,71,0.00,,,0.00,0,Wunderground v.1.15,2013-10-27 07:40:00,
2013-10-27 01:45:00,37.5,28.9,30.20,ENE,68,0.0,-999.0,71,0.00,,,0.00,0,Wunderground v.1.15,2013-10-27 07:45:00,
2013-10-27 01:50:00,37.5,28.9,30.20,ENE,68,0.0,-999.0,71,0.00,,,0.00,0,Wunderground v.1.15,2013-10-27 07:50:00,
2013-10-27 02:00:00,37.3,29.1,30.20,ENE,68,0.0,-999.0,72,0.00,,,0.00,0,Wunderground v.1.15,2013-10-27 08:00:00,
2013-10-27 02:05:00,37.2,29.0,30.20,ENE,68,0.0,-999.0,72,0.00,,,0.00,0,Wunderground v.1.15,2013-10-27 08:05:00,
2013-10-27 02:10:00,37.1,28.9,30.20,ENE,68,0.0,-999.0,72,0.00,,,0.00,0,Wunderground v.1.15,2013-10-27 08:10:00,
2013-10-27 02:15:00,37.0,28.8,30.20,ENE,68,0.0,-999.0,72,0.00,,,0.00,0,Wunderground v.1.15,2013-10-27 08:15:00,
2013-10-27 02:25:00,37.0,29.1,30.20,ENE,68,0.0,-999.0,73,0.00,,,0.00,0,Wunderground v.1.15,2013-10-27 08:25:00,
2013-10-27 02:35:00,36.6,28.4,30.20,ENE,68,0.0,-999.0,72,0.00,,,0.00,0,Wunderground v.1.15,2013-10-27 08:35:00,
2013-10-27 02:45:00,36.4,28.6,30.19,ENE,68,0.0,-999.0,73,0.00,,,0.00,0,Wunderground v.1.15,2013-10-27 08:45:00,
2013-10-27 02:50:00,36.3,28.5,30.19,ENE,68,0.0,-999.0,73,0.00,,,0.00,0,Wunderground v.1.15,2013-10-27 08:50:00,
2013-10-27 02:55:00,36.2,28.4,30.19,ENE,68,0.0,-999.0,73,0.00,,,0.00,0,Wunderground v.1.15,2013-10-27 08:55:00,
2013-10-27 03:10:00,36.1,27.9,30.19,ENE,68,0.0,-999.0,72,0.00,,,0.00,0,Wunderground v.1.15,2013-10-27 09:10:00,
2013-10-27 03:15:00,35.9,27.4,30.19,ENE,68,0.0,-999.0,71,0.00,,,0.00,0,Wunderground v.1.15,2013-10-27 09:15:00,
2013-10-27 03:20:00,35.8,27.3,30.19,ENE,68,0.0,-999.0,71,0.00,,,0.00,0,Wunderground v.1.15,2013-10-27 09:20:00,
2013-10-27 03:25:00,35.7,26.9,30.19,ENE,68,0.0,-999.0,70,0.00,,,0.00,0,Wunderground v.1.15,2013-10-27 09:25:00,
2013-10-27 03:30:00,35.5,27.0,30.19,ENE,68,0.0,-999.0,71,0.00,,,0.00,0,Wunderground v.1.15,2013-10-27 09:30:00,
2013-10-27 03:40:00,35.2,26.7,30.19,ENE,68,0.0,-999.0,71,0.00,,,0.00,0,Wunderground v.1.15,2013-10-27 09:40:00,
2013-10-27 03:45:00,35.1,26.6,30.19,ENE,68,0.0,-999.0,71,0.00,,,0.00,0,Wunderground v.1.15,2013-10-27 09:45:00,
2013-10-27 03:50:00,35.0,26.5,30.18,ENE,68,0.0,-999.0,71,0.00,,,0.00,0,Wunderground v.1.15,2013-10-27 09:50:00,
2013-10-27 04:00:00,35.3,27.5,30.18,ENE,68,0.0,-999.0,73,0.00,,,0.00,0,Wunderground v.1.15,2013-10-27 10:00:00,
2013-10-27 04:10:00,34.9,27.1,30.18,ENE,68,0.0,-999.0,73,0.00,,,0.00,0,Wunderground v.1.15,2013-10-27 10:10:00,
2013-10-27 04:15:00,34.8,27.4,30.18,ENE,68,0.0,-999.0,74,0.00,,,0.00,0,Wunderground v.1.15,2013-10-27 10:15:00,
2013-10-27 04:25:00,34.8,27.7,30.18,ENE,68,0.0,-999.0,75,0.00,,,0.00,0,Wunderground v.1.15,2013-10-27 10:25:00,
2013-10-27 04:30:00,34.7,27.3,30.18,ENE,68,0.0,-999.0,74,0.00,,,0.00,0,Wunderground v.1.15,2013-10-27 10:30:00,
2013-10-27 04:40:00,34.2,26.8,30.18,ENE,68,0.0,-999.0,74,0.00,,,0.00,0,Wunderground v.1.15,2013-10-27 10:40:00,
2013-10-27 04:45:00,34.1,26.7,30.18,ENE,68,0.0,-999.0,74,0.00,,,0.00,0,Wunderground v.1.15,2013-10-27 10:45:00,
2013-10-27 04:50:00,34.5,27.7,30.18,ENE,68,0.0,-999.0,76,0.00,,,0.00,0,Wunderground v.1.15,2013-10-27 10:50:00,
2013-10-27 04:55:00,34.3,27.2,30.17,ENE,68,0.0,-999.0,75,0.00,,,0.00,0,Wunderground v.1.15,2013-10-27 10:55:00,
2013-10-27 05:00:00,34.1,27.0,30.17,ENE,68,0.0,-999.0,75,0.00,,,0.00,0,Wunderground v.1.15,2013-10-27 11:00:00,
2013-10-27 05:05:00,34.0,27.2,30.17,ENE,68,0.0,-999.0,76,0.00,,,0.00,0,Wunderground v.1.15,2013-10-27 11:05:00,
2013-10-27 05:10:00,33.9,27.1,30.17,ENE,68,0.0,-999.0,76,0.00,,,0.00,0,Wunderground v.1.15,2013-10-27 11:10:00,
2013-10-27 05:15:00,33.8,28.6,30.18,ENE,68,0.0,-999.0,81,0.00,,,0.00,0,Wunderground v.1.15,2013-10-27 11:15:00,
2013-10-27 05:25:00,33.8,26.7,30.17,ENE,68,0.0,-999.0,75,0.00,,,0.00,0,Wunderground v.1.15,2013-10-27 11:25:00,
2013-10-27 05:30:00,33.6,26.2,30.18,ENE,68,0.0,-999.0,74,0.00,,,0.00,0,Wunderground v.1.15,2013-10-27 11:30:00,
2013-10-27 05:35:00,33.5,26.1,30.17,ENE,68,0.0,-999.0,74,0.00,,,0.00,0,Wunderground v.1.15,2013-10-27 11:35:00,
2013-10-27 05:45:00,33.5,26.4,30.17,ENE,71,0.0,-999.0,75,0.00,,,0.00,0,Wunderground v.1.15,2013-10-27 11:45:00,
2013-10-27 05:50:00,33.4,26.3,30.17,SSW,202,0.0,-999.0,75,0.00,,,0.00,0,Wunderground v.1.15,2013-10-27 11:50:00,
2013-10-27 05:55:00,33.3,25.9,30.17,SSW,202,0.0,-999.0,74,0.00,,,0.00,0,Wunderground v.1.15,2013-10-27 11:55:00,
2013-10-27 06:00:00,33.1,25.7,30.17,SSW,202,0.0,-999.0,74,0.00,,,0.00,0,Wunderground v.1.15,2013-10-27 12:00:00,
2013-10-27 06:10:00,32.6,25.2,30.17,SSW,202,0.0,-999.0,74,0.00,,,0.00,0,Wunderground v.1.15,2013-10-27 12:10:00,
2013-10-27 06:15:00,32.4,25.4,30.17,SSW,202,0.0,-999.0,75,0.00,,,0.00,0,Wunderground v.1.15,2013-10-27 12:15:00,
2013-10-27 06:25:00,32.4,25.7,30.17,SSW,202,0.0,-999.0,76,0.00,,,0.00,0,Wunderground v.1.15,2013-10-27 12:25:00,
2013-10-27 06:30:00,32.4,25.7,30.17,SSW,202,0.0,-999.0,76,0.00,,,0.00,0,Wunderground v.1.15,2013-10-27 12:30:00,
2013-10-27 06:40:00,32.3,25.6,30.17,SSW,202,0.0,-999.0,76,0.00,,,0.00,0,Wunderground v.1.15,2013-10-27 12:40:00,
2013-10-27 06:50:00,32.3,25.6,30.17,SSW,202,0.0,-999.0,76,0.00,,,0.00,0,Wunderground v.1.15,2013-10-27 12:50:00,
2013-10-27 06:55:00,32.3,25.6,30.16,SSW,202,0.0,-999.0,76,0.00,,,0.00,0,Wunderground v.1.15,2013-10-27 12:55:00,
2013-10-27 07:05:00,32.1,25.4,30.16,SSW,202,0.0,-999.0,76,0.00,,,0.00,0,Wunderground v.1.15,2013-10-27 13:05:00,
2013-10-27 07:10:00,32.1,25.7,30.16,SSW,202,0.0,-999.0,77,0.00,,,0.00,0,Wunderground v.1.15,2013-10-27 13:10:00,
2013-10-27 07:15:00,32.1,25.4,30.16,SSW,202,0.0,-999.0,76,0.00,,,0.00,0,Wunderground v.1.15,2013-10-27 13:15:00,
2013-10-27 07:20:00,31.9,25.2,30.16,SSW,202,0.0,-999.0,76,0.00,,,0.00,0,Wunderground v.1.15,2013-10-27 13:20:00,
2013-10-27 07:25:00,31.8,25.1,30.16,SSW,203,0.0,-999.0,76,0.00,,,0.00,0,Wunderground v.1.15,2013-10-27 13:25:00,
2013-10-27 07:35:00,31.6,25.2,30.16,SSW,202,0.0,-999.0,77,0.00,,,0.00,5,Wunderground v.1.15,2013-10-27 13:35:00,
2013-10-27 07:40:00,31.7,25.3,30.16,SSW,202,0.0,-999.0,77,0.00,,,0.00,7,Wunderground v.1.15,2013-10-27 13:40:00,
2013-10-27 07:50:00,31.9,25.5,30.16,SSW,203,0.0,-999.0,77,0.00,,,0.00,11,Wunderground v.1.15,2013-10-27 13:50:00,
2013-10-27 07:55:00,32.0,27.4,30.16,SSW,202,0.0,-999.0,83,0.00,,,0.00,11,Wunderground v.1.15,2013-10-27 13:55:00,
2013-10-27 08:00:00,32.1,26.0,30.17,SSW,203,0.0,-999.0,78,0.00,,,0.00,12,Wunderground v.1.15,2013-10-27 14:00:00,
2013-10-27 08:05:00,31.8,25.1,30.16,SSW,197,0.0,-999.0,76,0.00,,,0.00,14,Wunderground v.1.15,2013-10-27 14:05:00,
2013-10-27 08:10:00,31.8,25.4,30.17,SSW,197,0.0,-999.0,77,0.00,,,0.00,14,Wunderground v.1.15,2013-10-27 14:10:00,
2013-10-27 08:15:00,31.7,25.0,30.17,SSW,197,0.0,-999.0,76,0.00,,,0.00,16,Wunderground v.1.15,2013-10-27 14:15:00,
2013-10-27 08:20:00,31.6,25.2,30.17,SSW,196,0.0,-999.0,77,0.00,,,0.00,16,Wunderground v.1.15,2013-10-27 14:20:00,
2013-10-27 08:25:00,31.8,25.4,30.17,SSW,197,0.0,-999.0,77,0.00,,,0.00,18,Wunderground v.1.15,2013-10-27 14:25:00,
2013-10-27 08:30:00,31.7,25.3,30.17,SSW,197,0.0,-999.0,77,0.00,,,0.00,18,Wunderground v.1.15,2013-10-27 14:30:00,
2013-10-27 08:40:00,31.6,25.2,30.17,SSW,197,0.0,-999.0,77,0.00,,,0.00,19,Wunderground v.1.15,2013-10-27 14:40:00,
2013-10-27 08:45:00,31.7,25.3,30.17,SSW,197,0.0,-999.0,77,0.00,,,0.00,21,Wunderground v.1.15,2013-10-27 14:45:00,
2013-10-27 08:55:00,31.9,25.5,30.17,SSW,197,0.0,-999.0,77,0.00,,,0.00,21,Wunderground v.1.15,2013-10-27 14:55:00,
2013-10-27 09:00:00,32.0,27.4,30.16,SSW,196,0.0,-999.0,83,0.00,,,0.00,23,Wunderground v.1.15,2013-10-27 15:00:00,
2013-10-27 09:10:00,32.3,26.2,30.16,SSW,197,0.0,-999.0,78,0.00,,,0.00,23,Wunderground v.1.15,2013-10-27 15:10:00,
2013-10-27 09:15:00,32.6,26.5,30.16,SSW,197,0.0,-999.0,78,0.00,,,0.00,236,Wunderground v.1.15,2013-10-27 15:15:00,
2013-10-27 09:25:00,35.5,29.0,30.16,SSE,168,0.0,-999.0,77,0.00,,,0.00,281,Wunderground v.1.15,2013-10-27 15:25:00,
2013-10-27 09:35:00,38.4,28.8,30.15,SSE,168,0.0,-999.0,68,0.00,,,0.00,309,Wunderground v.1.15,2013-10-27 15:35:00,
2013-10-27 09:40:00,38.5,27.7,30.15,SE,126,0.0,-999.0,65,0.00,,,0.00,323,Wunderground v.1.15,2013-10-27 15:40:00,
2013-10-27 09:50:00,40.1,29.3,30.14,ESE,112,2.0,-999.0,65,0.00,,,0.00,348,Wunderground v.1.15,2013-10-27 15:50:00,
2013-10-27 10:00:00,41.1,31.0,30.13,ENE,77,3.0,-999.0,67,0.00,,,0.00,373,Wunderground v.1.15,2013-10-27 16:00:00,
2013-10-27 10:10:00,41.8,29.7,30.12,East,81,2.0,-999.0,62,0.00,,,0.00,397,Wunderground v.1.15,2013-10-27 16:10:00,
2013-10-27 10:15:00,42.0,29.5,30.11,East,87,3.0,-999.0,61,0.00,,,0.00,408,Wunderground v.1.15,2013-10-27 16:15:00,
2013-10-27 10:20:00,42.3,29.8,30.11,East,83,4.0,-999.0,61,0.00,,,0.00,418,Wunderground v.1.15,2013-10-27 16:20:00,
2013-10-27 10:25:00,43.3,30.3,30.11,ENE,62,4.0,-999.0,60,0.00,,,0.00,431,Wunderground v.1.15,2013-10-27 16:25:00,
2013-10-27 10:30:00,43.7,30.3,30.10,ENE,70,3.0,-999.0,59,0.00,,,0.00,441,Wunderground v.1.15,2013-10-27 16:30:00,
2013-10-27 10:35:00,43.9,29.6,30.10,East,81,3.0,-999.0,57,0.00,,,0.00,452,Wunderground v.1.15,2013-10-27 16:35:00,
2013-10-27 10:45:00,44.9,32.3,30.09,ENE,64,3.0,-999.0,61,0.00,,,0.00,475,Wunderground v.1.15,2013-10-27 16:45:00,
2013-10-27 10:55:00,45.7,30.4,30.08,NE,51,4.0,-999.0,55,0.00,,,0.00,490,Wunderground v.1.15,2013-10-27 16:55:00,
2013-10-27 11:00:00,46.9,31.6,30.07,NE,50,3.0,-999.0,55,0.00,,,0.00,499,Wunderground v.1.15,2013-10-27 17:00:00,
2013-10-27 11:05:00,47.0,31.2,30.07,NNE,33,2.0,-999.0,54,0.00,,,0.00,512,Wunderground v.1.15,2013-10-27 17:05:00,
2013-10-27 11:10:00,48.1,31.8,30.06,ENE,58,2.0,-999.0,53,0.00,,,0.00,519,Wunderground v.1.15,2013-10-27 17:10:00,
2013-10-27 11:20:00,48.7,31.4,30.05,ENE,66,3.0,-999.0,51,0.00,,,0.00,534,Wunderground v.1.15,2013-10-27 17:20:00,
2013-10-27 11:25:00,49.0,30.7,30.05,ENE,70,3.0,-999.0,49,0.00,,,0.00,541,Wunderground v.1.15,2013-10-27 17:25:00,
2013-10-27 11:35:00,50.4,31.4,30.04,NE,54,3.0,-999.0,48,0.00,,,0.00,555,Wunderground v.1.15,2013-10-27 17:35:00,
2013-10-27 11:45:00,52.2,32.0,30.03,NE,56,2.0,-999.0,46,0.00,,,0.00,570,Wunderground v.1.15,2013-10-27 17:45:00,
2013-10-27 11:55:00,52.6,30.1,30.02,NE,54,1.0,-999.0,42,0.00,,,0.00,585,Wunderground v.1.15,2013-10-27 17:55:00,
2013-10-27 12:10:00,54.5,30.6,30.00,NE,55,1.0,-999.0,40,0.00,,,0.00,591,Wunderground v.1.15,2013-10-27 18:10:00,
2013-10-27 12:15:00,55.2,29.4,30.00,NE,54,0.0,-999.0,37,0.00,,,0.00,599,Wunderground v.1.15,2013-10-27 18:15:00,
2013-10-27 12:20:00,56.2,28.9,29.99,NE,56,0.0,-999.0,35,0.00,,,0.00,605,Wunderground v.1.15,2013-10-27 18:20:00,
2013-10-27 12:25:00,57.1,29.0,29.99,NE,55,0.0,-999.0,34,0.00,,,0.00,606,Wunderground v.1.15,2013-10-27 18:25:00,
2013-10-27 12:35:00,57.5,28.6,29.98,ENE,76,0.0,-999.0,33,0.00,,,0.00,612,Wunderground v.1.15,2013-10-27 18:35:00,
2013-10-27 12:40:00,58.6,30.3,29.97,ENE,75,0.0,-999.0,34,0.00,,,0.00,613,Wunderground v.1.15,2013-10-27 18:40:00,
2013-10-27 12:50:00,60.6,30.6,29.96,SW,222,0.0,-999.0,32,0.00,,,0.00,619,Wunderground v.1.15,2013-10-27 18:50:00,
2013-10-27 12:55:00,60.6,30.6,29.95,SW,231,1.0,-999.0,32,0.00,,,0.00,619,Wunderground v.1.15,2013-10-27 18:55:00,
2013-10-27 13:05:00,60.9,31.6,29.94,SW,231,2.0,-999.0,33,0.00,,,0.00,619,Wunderground v.1.15,2013-10-27 19:05:00,
2013-10-27 13:10:00,61.2,29.5,29.94,SW,220,5.0,-999.0,30,0.00,,,0.00,619,Wunderground v.1.15,2013-10-27 19:10:00,
2013-10-27 13:15:00,61.5,30.6,29.93,SW,230,6.0,-999.0,31,0.00,,,0.00,617,Wunderground v.1.15,2013-10-27 19:15:00,
2013-10-27 13:25:00,61.8,30.0,29.93,SW,218,7.0,-999.0,30,0.00,,,0.00,615,Wunderground v.1.15,2013-10-27 19:25:00,
2013-10-27 13:30:00,61.7,29.9,29.92,SW,214,7.0,-999.0,30,0.00,,,0.00,617,Wunderground v.1.15,2013-10-27 19:30:00,
2013-10-27 13:40:00,61.6,29.8,29.92,SW,234,8.0,-999.0,30,0.00,,,0.00,531,Wunderground v.1.15,2013-10-27 19:40:00,
2013-10-27 13:45:00,61.5,29.7,29.91,SSW,193,9.0,-999.0,30,0.00,,,0.00,621,Wunderground v.1.15,2013-10-27 19:45:00,
2013-10-27 13:50:00,61.6,29.8,29.91,SW,220,9.0,-999.0,30,0.00,,,0.00,610,Wunderground v.1.15,2013-10-27 19:50:00,
2013-10-27 13:55:00,61.7,30.7,29.90,WSW,239,8.0,-999.0,31,0.00,,,0.00,612,Wunderground v.1.15,2013-10-27 19:55:00,
2013-10-27 14:00:00,62.0,31.0,29.90,SW,224,8.0,-999.0,31,0.00,,,0.00,606,Wunderground v.1.15,2013-10-27 20:00:00,
2013-10-27 14:10:00,62.4,29.7,29.89,SW,214,9.0,-999.0,29,0.00,,,0.00,548,Wunderground v.1.15,2013-10-27 20:10:00,
2013-10-27 14:15:00,62.7,30.0,29.89,SW,224,7.0,-999.0,29,0.00,,,0.00,571,Wunderground v.1.15,2013-10-27 20:15:00,
2013-10-27 14:25:00,62.6,28.1,29.88,SW,225,8.0,-999.0,27,0.00,,,0.00,582,Wunderground v.1.15,2013-10-27 20:25:00,
2013-10-27 14:30:00,63.0,30.2,29.88,SW,235,7.0,-999.0,29,0.00,,,0.00,568,Wunderground v.1.15,2013-10-27 20:30:00,
2013-10-27 14:35:00,62.5,28.0,29.88,WSW,239,8.0,-999.0,27,0.00,,,0.00,496,Wunderground v.1.15,2013-10-27 20:35:00,
2013-10-27 14:45:00,62.7,29.1,29.87,SW,228,7.0,-999.0,28,0.00,,,0.00,559,Wunderground v.1.15,2013-10-27 20:45:00,
2013-10-27 14:55:00,62.4,27.9,29.87,WSW,242,7.0,-999.0,27,0.00,,,0.00,179,Wunderground v.1.15,2013-10-27 20:55:00,
2013-10-27 15:00:00,62.4,30.5,29.86,WSW,253,6.0,-999.0,30,0.00,,,0.00,564,Wunderground v.1.15,2013-10-27 21:00:00,
2013-10-27 15:10:00,63.0,30.2,29.86,SW,229,7.0,-999.0,29,0.00,,,0.00,540,Wunderground v.1.15,2013-10-27 21:10:00,
2013-10-27 15:15:00,63.3,28.7,29.86,SW,224,7.0,-999.0,27,0.00,,,0.00,448,Wunderground v.1.15,2013-10-27 21:15:00,
2013-10-27 15:20:00,62.6,28.1,29.85,SW,228,7.0,-999.0,27,0.00,,,0.00,480,Wunderground v.1.15,2013-10-27 21:20:00,
2013-10-27 15:25:00,63.5,29.8,29.85,SW,225,7.0,-999.0,28,0.00,,,0.00,309,Wunderground v.1.15,2013-10-27 21:25:00,
2013-10-27 15:30:00,62.9,29.3,29.85,SSW,199,6.0,-999.0,28,0.00,,,0.00,285,Wunderground v.1.15,2013-10-27 21:30:00,
2013-10-27 15:35:00,62.5,29.8,29.85,SW,219,7.0,-999.0,29,0.00,,,0.00,297,Wunderground v.1.15,2013-10-27 21:35:00,
2013-10-27 15:40:00,62.4,28.8,29.85,SW,216,8.0,-999.0,28,0.00,,,0.00,299,Wunderground v.1.15,2013-10-27 21:40:00,
2013-10-27 15:50:00,63.3,29.6,29.84,SW,224,6.0,-999.0,28,0.00,,,0.00,492,Wunderground v.1.15,2013-10-27 21:50:00,
2013-10-27 15:55:00,63.0,29.4,29.84,SW,225,6.0,-999.0,28,0.00,,,0.00,162,Wunderground v.1.15,2013-10-27 21:55:00,
2013-10-27 16:00:00,62.3,27.9,29.84,SW,217,7.0,-999.0,27,0.00,,,0.00,114,Wunderground v.1.15,2013-10-27 22:00:00,
2013-10-27 16:05:00,62.0,29.3,29.84,SW,221,6.0,-999.0,29,0.00,,,0.00,116,Wunderground v.1.15,2013-10-27 22:05:00,
2013-10-27 16:10:00,61.8,30.8,29.84,SW,227,6.0,-999.0,31,0.00,,,0.00,179,Wunderground v.1.15,2013-10-27 22:10:00,
2013-10-27 16:20:00,62.1,29.4,29.83,SSW,200,6.0,-999.0,29,0.00,,,0.00,167,Wunderground v.1.15,2013-10-27 22:20:00,
2013-10-27 16:25:00,62.1,30.3,29.83,SW,220,7.0,-999.0,30,0.00,,,0.00,146,Wunderground v.1.15,2013-10-27 22:25:00,
2013-10-27 16:35:00,62.0,30.2,29.83,SW,224,6.0,-999.0,30,0.00,,,0.00,160,Wunderground v.1.15,2013-10-27 22:35:00,
2013-10-27 16:40:00,62.1,31.1,29.83,SSW,202,5.0,-999.0,31,0.00,,,0.00,262,Wunderground v.1.15,2013-10-27 22:40:00,
2013-10-27 16:50:00,62.5,29.8,29.83,SW,225,4.0,-999.0,29,0.00,,,0.00,127,Wunderground v.1.15,2013-10-27 22:50:00,
2013-10-27 16:55:00,62.1,30.3,29.82,SW,223,6.0,-999.0,30,0.00,,,0.00,113,Wunderground v.1.15,2013-10-27 22:55:00,
2013-10-27 17:05:00,61.7,29.9,29.82,SSW,204,5.0,-999.0,30,0.00,,,0.00,76,Wunderground v.1.15,2013-10-27 23:05:00,
2013-10-27 17:10:00,61.6,30.6,29.82,SW,221,5.0,-999.0,31,0.00,,,0.00,81,Wunderground v.1.15,2013-10-27 23:10:00,
2013-10-27 17:15:00,61.4,29.7,29.82,SW,220,4.0,-999.0,30,0.00,,,0.00,65,Wunderground v.1.15,2013-10-27 23:15:00,
2013-10-27 17:25:00,61.1,30.2,29.82,SW,216,4.0,-999.0,31,0.00,,,0.00,42,Wunderground v.1.15,2013-10-27 23:25:00,
2013-10-27 17:30:00,61.0,30.1,29.82,SSW,213,4.0,-999.0,31,0.00,,,0.00,33,Wunderground v.1.15,2013-10-27 23:30:00,
2013-10-27 17:35:00,60.8,31.5,29.82,SSW,212,4.0,-999.0,33,0.00,,,0.00,30,Wunderground v.1.15,2013-10-27 23:35:00,
2013-10-27 17:40:00,60.4,30.4,29.82,SSW,205,4.0,-999.0,32,0.00,,,0.00,28,Wunderground v.1.15,2013-10-27 23:40:00,
2013-10-27 17:45:00,60.3,31.8,29.81,SSW,201,3.0,-999.0,34,0.00,,,0.00,19,Wunderground v.1.15,2013-10-27 23:45:00,
2013-10-27 17:50:00,60.2,31.0,29.81,SSW,201,1.0,-999.0,33,0.00,,,0.00,12,Wunderground v.1.15,2013-10-27 23:50:00,
2013-10-27 17:55:00,60.0,30.8,29.81,SSW,201,0.0,-999.0,33,0.00,,,0.00,11,Wunderground v.1.15,2013-10-27 23:55:00,
2013-10-27 18:00:00,59.8,31.3,29.81,SSW,201,0.0,-999.0,34,0.00,,,0.00,9,Wunderground v.1.15,2013-10-28 00:00:00,
2013-10-27 18:10:00,59.5,31.1,29.81,SSW,201,0.0,-999.0,34,0.00,,,0.00,11,Wunderground v.1.15,2013-10-28 00:10:00,
2013-10-27 18:15:00,59.0,32.7,29.81,SSW,201,0.0,-999.0,37,0.00,,,0.00,5,Wunderground v.1.15,2013-10-28 00:15:00,
2013-10-27 18:20:00,58.7,31.8,29.81,SSW,201,0.0,-999.0,36,0.00,,,0.00,0,Wunderground v.1.15,2013-10-28 00:20:00,
2013-10-27 18:30:00,57.8,34.2,29.82,SSW,201,0.0,-999.0,41,0.00,,,0.00,0,Wunderground v.1.15,2013-10-28 00:30:00,